createdAt,value
2018-06-03T00:01:08.080Z,32.60
2018-06-03T00:03:35.657Z,33.20
2018-06-03T00:06:07.519Z,30.33
2018-06-03T00:08:35.328Z,30.10
2018-06-03T00:11:04.371Z,30.67
2018-06-03T00:19:24.171Z,27.90
2018-06-03T00:39:15.805Z,23.20
2018-06-03T00:41:44.121Z,23.07
2018-06-03T00:52:52.301Z,21.37
2018-06-03T01:10:00.931Z,19.53
2018-06-03T01:15:24.549Z,17.63
2018-06-03T01:23:37.325Z,18.50
2018-06-03T01:28:58.295Z,19.03
2018-06-03T01:31:27.415Z,15.50
2018-06-03T01:34:05.431Z,14.70
2018-06-03T01:42:26.067Z,13.60
2018-06-03T01:50:43.561Z,11.77
2018-06-03T02:19:08.573Z,11.10
2018-06-03T02:21:36.438Z,10.20
2018-06-03T02:24:04.224Z,12.70
2018-06-03T02:29:26.549Z,13.13
2018-06-03T02:34:54.608Z,12.53
2018-06-03T02:37:23.119Z,12.07
2018-06-03T02:39:50.806Z,11.13
2018-06-03T02:42:20.181Z,10.70
2018-06-03T02:44:47.963Z,10.40
2018-06-03T02:47:17.405Z,10.80
2018-06-03T02:52:52.163Z,10.10
2018-06-03T02:55:20.184Z,10.77
2018-06-03T02:57:56.278Z,9.33
2018-06-03T03:00:24.158Z,10.03
2018-06-03T03:02:52.880Z,10.33
2018-06-03T03:05:23.528Z,9.63
2018-06-03T03:07:51.741Z,10.17
2018-06-03T03:10:20.659Z,10.90
2018-06-03T03:21:37.682Z,8.43
2018-06-03T03:29:56.868Z,9.97
2018-06-03T03:37:58.507Z,11.00
2018-06-03T03:40:36.240Z,9.63
2018-06-03T03:43:06.272Z,9.40
2018-06-03T03:48:28.306Z,9.70
2018-06-03T03:50:56.928Z,9.73
2018-06-03T03:53:24.867Z,10.27
2018-06-03T03:55:53.529Z,9.80
2018-06-03T03:58:21.507Z,9.53
2018-06-03T04:03:37.847Z,8.60
2018-06-03T04:06:07.566Z,9.03
2018-06-03T04:17:15.915Z,9.40
2018-06-03T04:19:43.789Z,9.73
2018-06-03T04:22:11.662Z,9.70
2018-06-03T04:24:40.048Z,9.60
2018-06-03T04:38:28.580Z,8.33
2018-06-03T04:40:57.142Z,9.00
2018-06-03T04:43:24.978Z,8.90
2018-06-03T04:45:52.723Z,9.10
2018-06-03T04:56:48.393Z,9.10
2018-06-03T04:59:18.356Z,8.37
2018-06-03T05:01:46.996Z,8.87
2018-06-03T05:04:14.759Z,9.07
2018-06-03T05:06:44.517Z,9.13
2018-06-03T05:09:20.583Z,9.43
2018-06-03T05:23:22.780Z,8.53
2018-06-03T05:25:51.342Z,7.50
2018-06-03T05:31:13.231Z,8.37
2018-06-03T05:45:05.344Z,8.67
2018-06-03T05:47:37.138Z,8.27
2018-06-03T05:50:04.861Z,9.80
2018-06-03T05:52:32.407Z,7.63
2018-06-03T05:55:00.322Z,8.53
2018-06-03T05:57:28.034Z,8.43
2018-06-03T05:59:57.341Z,8.10
2018-06-03T06:05:21.554Z,9.30
2018-06-03T06:07:51.080Z,9.40
2018-06-03T06:29:19.040Z,8.60
2018-06-03T06:31:46.789Z,8.60
2018-06-03T06:34:14.629Z,9.07
2018-06-03T06:36:43.333Z,8.50
2018-06-03T06:41:56.043Z,9.10
2018-06-03T06:47:18.264Z,9.00
2018-06-03T06:49:46.072Z,8.73
2018-06-03T06:52:14.530Z,9.10
2018-06-03T06:54:42.356Z,9.10
2018-06-03T06:57:10.103Z,8.80
2018-06-03T07:14:16.035Z,10.00
2018-06-03T07:16:56.954Z,10.50
2018-06-03T07:22:19.973Z,8.77
2018-06-03T07:27:44.326Z,9.33
2018-06-03T07:38:43.174Z,7.40
2018-06-03T07:41:16.200Z,7.40
2018-06-03T07:43:43.972Z,7.67
2018-06-03T07:46:11.870Z,8.70
2018-06-03T07:51:33.300Z,8.27
2018-06-03T08:05:36.085Z,9.00
2018-06-03T08:08:10.225Z,8.43
2018-06-03T08:10:50.615Z,8.83
2018-06-03T08:21:40.063Z,9.43
2018-06-03T08:27:06.006Z,8.10
2018-06-03T08:29:34.476Z,7.80
2018-06-03T08:32:02.514Z,8.57
2018-06-03T08:34:30.293Z,9.13
2018-06-03T08:36:58.142Z,9.43
2018-06-03T08:42:15.306Z,8.27
2018-06-03T08:47:37.510Z,8.80
2018-06-03T08:50:06.141Z,8.50
2018-06-03T08:52:34.817Z,7.37
2018-06-03T08:55:03.087Z,9.07
2018-06-03T08:57:37.401Z,8.93
2018-06-03T09:00:05.171Z,9.03
2018-06-03T09:02:33.558Z,9.07
2018-06-03T09:07:56.599Z,10.10
2018-06-03T09:10:26.572Z,9.17
2018-06-03T09:12:55.841Z,8.40
2018-06-03T09:15:23.667Z,8.57
2018-06-03T09:18:04.588Z,8.10
2018-06-03T09:20:33.141Z,7.83
2018-06-03T09:28:43.309Z,8.60
2018-06-03T09:34:04.602Z,9.50
2018-06-03T09:53:43.702Z,7.30
2018-06-03T09:56:15.359Z,7.33
2018-06-03T09:58:43.098Z,7.67
2018-06-03T10:01:10.892Z,7.73
2018-06-03T10:03:38.630Z,7.77
2018-06-03T10:06:06.528Z,7.67
2018-06-03T10:08:34.621Z,8.07
2018-06-03T10:13:59.489Z,8.20
2018-06-03T10:16:27.201Z,7.57
2018-06-03T10:33:09.564Z,8.27
2018-06-03T10:38:22.314Z,8.40
2018-06-03T10:43:45.413Z,8.20
2018-06-03T10:46:15.592Z,9.27
2018-06-03T10:48:44.950Z,7.93
2018-06-03T10:51:12.778Z,7.77
2018-06-03T10:53:47.119Z,8.03
2018-06-03T10:56:15.966Z,7.17
2018-06-03T10:58:43.725Z,8.17
2018-06-03T11:01:12.166Z,6.80
2018-06-03T11:03:39.810Z,7.43
2018-06-03T11:06:07.482Z,7.20
2018-06-03T11:11:16.808Z,7.17
2018-06-03T11:16:25.863Z,6.97
2018-06-03T11:18:53.412Z,7.30
2018-06-03T11:21:21.220Z,7.27
2018-06-03T11:23:48.877Z,6.70
2018-06-03T11:26:16.495Z,6.70
2018-06-03T11:28:52.286Z,6.80
2018-06-03T11:31:20.158Z,7.33
2018-06-03T11:36:42.652Z,6.77
2018-06-03T11:39:12.641Z,7.43
2018-06-03T11:41:40.541Z,6.40
2018-06-03T11:44:08.352Z,6.77
2018-06-03T11:46:36.833Z,6.53
2018-06-03T11:57:43.451Z,7.50
2018-06-03T12:00:11.219Z,7.20
2018-06-03T12:02:51.063Z,7.20
2018-06-03T12:13:58.821Z,13.80
2018-06-03T12:19:25.841Z,430.13
2018-06-03T12:27:42.241Z,182.73
2018-06-03T12:30:10.951Z,160.63
2018-06-03T12:32:38.784Z,152.13
2018-06-03T12:35:07.246Z,141.77
2018-06-03T12:41:25.339Z,114.87
2018-06-03T12:58:03.877Z,79.87
2018-06-03T13:00:32.146Z,74.80
2018-06-03T13:03:00.552Z,68.77
2018-06-03T13:05:28.297Z,68.90
2018-06-03T13:07:57.044Z,64.93
2018-06-03T13:10:24.801Z,67.97
2018-06-03T13:13:01.906Z,63.93
2018-06-03T13:18:18.723Z,61.87
2018-06-03T13:20:46.211Z,58.27
2018-06-03T13:23:14.382Z,58.60
2018-06-03T13:25:42.629Z,53.03
2018-06-03T13:36:41.067Z,39.67
2018-06-03T13:42:01.788Z,29.67
2018-06-03T13:47:22.594Z,26.40
2018-06-03T13:49:50.782Z,25.97
2018-06-03T13:52:18.422Z,24.30
2018-06-03T13:54:47.088Z,23.77
2018-06-03T13:57:14.931Z,21.97
2018-06-03T14:02:25.095Z,21.17
2018-06-03T14:04:55.208Z,19.90
2018-06-03T14:18:49.236Z,29.53
2018-06-03T14:21:17.366Z,25.97
2018-06-03T14:26:39.765Z,22.40
2018-06-03T14:29:08.905Z,21.93
2018-06-03T14:31:37.315Z,21.13
2018-06-03T14:39:54.811Z,18.50
2018-06-03T14:42:22.407Z,16.97
2018-06-03T14:44:50.003Z,16.20
2018-06-03T14:47:17.710Z,16.63
2018-06-03T14:49:45.221Z,16.27
2018-06-03T14:52:12.713Z,15.27
2018-06-03T14:54:40.193Z,15.27
2018-06-03T14:57:09.526Z,13.73
2018-06-03T14:59:37.165Z,13.40
2018-06-03T15:02:04.603Z,13.53
2018-06-03T15:04:32.067Z,13.50
2018-06-03T15:06:59.589Z,12.07
2018-06-03T15:09:27.090Z,12.70
2018-06-03T15:11:55.387Z,12.77
2018-06-03T15:14:22.846Z,14.27
2018-06-03T15:16:50.393Z,13.80
2018-06-03T15:19:17.976Z,14.20
2018-06-03T15:21:45.472Z,15.97
2018-06-03T15:24:13.172Z,16.40
2018-06-03T15:26:40.708Z,17.37
2018-06-03T15:29:08.288Z,14.13
2018-06-03T15:31:35.989Z,14.83
2018-06-03T15:34:04.173Z,15.43
2018-06-03T15:36:32.081Z,13.70
2018-06-03T15:39:01.273Z,15.00
2018-06-03T15:41:28.875Z,13.10
2018-06-03T15:43:56.485Z,16.00
2018-06-03T15:46:24.164Z,13.73
2018-06-03T15:48:51.749Z,15.37
2018-06-03T15:51:20.582Z,13.37
2018-06-03T15:53:48.168Z,14.63
2018-06-03T15:56:15.744Z,13.30
2018-06-03T15:58:44.023Z,14.77
2018-06-03T16:01:11.758Z,15.53
2018-06-03T16:03:39.540Z,15.00
2018-06-03T16:06:07.041Z,14.23
2018-06-03T16:08:34.649Z,13.90
2018-06-03T16:11:02.347Z,15.40
2018-06-03T16:13:29.902Z,13.57
2018-06-03T16:15:57.420Z,13.07
2018-06-03T16:18:24.944Z,14.67
2018-06-03T16:20:52.581Z,14.40
2018-06-03T16:23:20.286Z,14.40
2018-06-03T16:28:41.696Z,15.40
2018-06-03T16:31:09.434Z,15.87
2018-06-03T16:42:08.143Z,14.60
2018-06-03T16:59:50.379Z,17.60
2018-06-03T17:01:53.135Z,18.33
2018-06-03T17:06:31.631Z,17.67
2018-06-03T17:08:34.586Z,16.23
2018-06-03T17:10:38.777Z,15.53
2018-06-03T17:12:43.362Z,16.97
2018-06-03T17:14:47.596Z,16.97
2018-06-03T17:19:06.403Z,17.13
2018-06-03T17:21:10.273Z,16.73
2018-06-03T17:23:23.121Z,17.50
2018-06-03T17:28:00.681Z,16.53
2018-06-03T17:32:33.092Z,17.80
2018-06-03T17:44:22.266Z,17.07
2018-06-03T17:46:30.426Z,17.90
2018-06-03T17:48:33.758Z,16.63
2018-06-03T17:50:37.056Z,19.03
2018-06-03T17:52:40.338Z,17.40
2018-06-03T17:54:43.746Z,18.57
2018-06-03T18:16:15.885Z,209.35
2018-06-03T18:18:19.391Z,117.33
2018-06-03T18:20:22.220Z,116.23
2018-06-03T18:22:25.275Z,89.90
2018-06-03T18:24:28.807Z,65.90
2018-06-03T18:26:32.337Z,64.17
2018-06-03T18:33:32.302Z,49.00
2018-06-03T18:40:33.194Z,41.33
2018-06-03T18:51:53.655Z,34.87
2018-06-03T18:53:59.666Z,33.40
2018-06-03T18:58:36.549Z,53.60
2018-06-03T19:08:03.936Z,38.83
2018-06-03T19:10:06.844Z,39.53
2018-06-03T19:12:10.467Z,39.10
2018-06-03T19:14:13.418Z,41.07
2018-06-03T19:16:17.244Z,38.40
2018-06-03T19:18:20.258Z,39.13
2018-06-03T19:20:23.900Z,38.27
2018-06-03T19:22:26.970Z,37.20
2018-06-03T19:24:29.847Z,38.50
2018-06-03T19:26:33.336Z,38.33
2018-06-03T19:28:37.367Z,38.17
2018-06-03T19:30:40.628Z,34.77
2018-06-03T19:32:44.546Z,36.23
2018-06-03T19:34:49.233Z,39.37
2018-06-03T19:36:52.224Z,36.50
2018-06-03T19:38:56.429Z,37.80
2018-06-03T19:40:59.585Z,37.00
2018-06-03T19:43:02.661Z,37.50
2018-06-03T19:45:05.482Z,36.20
2018-06-03T19:47:08.291Z,35.30
2018-06-03T19:49:12.287Z,35.00
2018-06-03T19:51:16.141Z,36.63
2018-06-03T19:53:19.721Z,33.30
2018-06-03T19:55:22.725Z,34.60
2018-06-03T19:57:25.743Z,33.47
2018-06-03T19:59:28.859Z,33.80
2018-06-03T20:01:31.984Z,35.23
2018-06-03T20:03:35.694Z,33.07
2018-06-03T20:05:38.858Z,32.80
2018-06-03T20:07:42.079Z,33.93
2018-06-03T20:09:46.194Z,34.50
2018-06-03T20:11:49.104Z,31.97
2018-06-03T20:13:52.797Z,31.73
2018-06-03T20:15:56.008Z,31.40
2018-06-03T20:17:58.930Z,33.97
2018-06-03T20:20:02.807Z,31.27
2018-06-03T20:22:06.934Z,32.80
2018-06-03T20:26:39.073Z,37.57
2018-06-03T20:31:12.411Z,32.10
2018-06-03T20:33:15.999Z,32.97
2018-06-03T20:35:19.099Z,30.47
2018-06-03T20:37:22.894Z,31.10
2018-06-03T20:39:26.386Z,31.30
2018-06-03T20:41:30.883Z,30.67
2018-06-03T20:43:34.085Z,31.10
2018-06-03T20:45:37.294Z,30.17
2018-06-03T20:47:50.857Z,30.27
2018-06-03T20:52:15.309Z,28.53
2018-06-03T20:54:18.705Z,28.93
2018-06-03T20:56:22.152Z,26.87
2018-06-03T21:00:49.145Z,25.60
2018-06-03T21:02:52.876Z,27.17
2018-06-03T21:04:56.366Z,26.00
2018-06-03T21:06:59.949Z,26.00
2018-06-03T21:09:03.012Z,26.90
2018-06-03T21:11:06.572Z,24.57
2018-06-03T21:13:12.848Z,25.53
2018-06-03T21:15:15.840Z,24.40
2018-06-03T21:17:20.821Z,25.07
2018-06-03T21:19:35.272Z,24.30
2018-06-03T21:21:39.585Z,24.77
2018-06-03T21:26:25.973Z,24.83
2018-06-03T21:28:29.955Z,22.60
2018-06-03T21:30:34.115Z,23.70
2018-06-03T21:32:37.117Z,23.00
2018-06-03T21:34:40.422Z,23.40
2018-06-03T21:36:44.018Z,22.77
2018-06-03T21:38:56.682Z,21.90
2018-06-03T21:41:00.176Z,24.10
2018-06-03T21:43:03.737Z,21.47
2018-06-03T21:47:21.701Z,23.07
2018-06-03T21:49:25.445Z,23.03
2018-06-03T21:51:29.251Z,21.00
2018-06-03T21:58:13.219Z,23.47
2018-06-03T22:00:16.739Z,23.40
2018-06-03T22:02:20.023Z,25.37
2018-06-03T22:04:23.754Z,22.73
2018-06-03T22:06:26.990Z,24.20
2018-06-03T22:08:31.058Z,22.87
2018-06-03T22:10:35.201Z,21.20
2018-06-03T22:12:38.264Z,20.87
2018-06-03T22:14:41.885Z,21.53
2018-06-03T22:16:44.892Z,20.60
2018-06-03T22:18:56.029Z,20.10
2018-06-03T22:21:14.900Z,21.10
2018-06-03T22:23:18.629Z,22.30
2018-06-03T22:25:23.076Z,21.85
2018-06-03T22:31:59.724Z,20.30
2018-06-03T22:34:12.229Z,20.47
2018-06-03T22:36:16.138Z,21.93
2018-06-03T22:38:20.366Z,22.00
2018-06-03T22:45:21.838Z,29.10
2018-06-03T22:47:25.646Z,32.83
2018-06-03T22:49:28.308Z,32.17
2018-06-03T22:51:31.357Z,33.00
2018-06-03T22:53:35.913Z,33.60
2018-06-03T22:55:38.472Z,33.27
2018-06-03T22:57:42.035Z,34.17
2018-06-03T22:59:44.754Z,36.30
2018-06-03T23:01:47.513Z,38.23
2018-06-03T23:03:50.325Z,37.77
2018-06-03T23:05:53.232Z,36.10
2018-06-03T23:07:55.941Z,38.23
2018-06-03T23:09:59.847Z,39.33
2018-06-03T23:12:02.487Z,38.77
2018-06-03T23:14:06.468Z,37.87
2018-06-03T23:16:10.092Z,39.87
2018-06-03T23:18:13.796Z,37.37
2018-06-03T23:20:16.429Z,38.00
2018-06-03T23:22:19.328Z,38.47
2018-06-03T23:24:22.993Z,39.20
2018-06-03T23:26:25.751Z,36.90
2018-06-03T23:28:28.894Z,36.93
2018-06-03T23:30:33.374Z,37.33
2018-06-03T23:32:36.886Z,37.53
2018-06-03T23:34:39.641Z,38.07
2018-06-03T23:36:42.545Z,37.33
2018-06-03T23:38:49.440Z,38.27
2018-06-03T23:40:52.527Z,37.97
2018-06-03T23:42:55.891Z,36.83
2018-06-03T23:44:58.942Z,37.20
2018-06-03T23:47:02.062Z,35.97
2018-06-03T23:49:04.681Z,33.83
2018-06-03T23:51:07.247Z,37.07
2018-06-03T23:53:09.840Z,36.80
2018-06-03T23:55:14.423Z,34.13
2018-06-03T23:57:17.931Z,38.60
2018-06-03T23:59:21.179Z,37.87
